sensor_id;sensor_type;location;lat;lon;timestamp;pressure;altitude;pressure_sealevel;temperature
81885;BMP280;71340;55.154;30.266;2023-07-16T00:01:57;99553.78;;;14.47
81885;BMP280;71340;55.154;30.266;2023-07-16T00:04:23;99553.31;;;14.38
81885;BMP280;71340;55.154;30.266;2023-07-16T00:06:48;99552.56;;;14.38
81885;BMP280;71340;55.154;30.266;2023-07-16T00:09:14;99539.72;;;14.33
81885;BMP280;71340;55.154;30.266;2023-07-16T00:11:40;99545.47;;;14.09
81885;BMP280;71340;55.154;30.266;2023-07-16T00:14:05;99547.31;;;14.05
81885;BMP280;71340;55.154;30.266;2023-07-16T00:16:31;99548.19;;;14.16
81885;BMP280;71340;55.154;30.266;2023-07-16T00:18:56;99552.41;;;14.24
81885;BMP280;71340;55.154;30.266;2023-07-16T00:21:21;99547.94;;;14.28
81885;BMP280;71340;55.154;30.266;2023-07-16T00:23:47;99547.88;;;14.21
81885;BMP280;71340;55.154;30.266;2023-07-16T00:26:13;99550.50;;;14.21
81885;BMP280;71340;55.154;30.266;2023-07-16T00:28:38;99545.53;;;14.16
81885;BMP280;71340;55.154;30.266;2023-07-16T00:31:04;99549.28;;;14.11
81885;BMP280;71340;55.154;30.266;2023-07-16T00:33:29;99551.53;;;14.09
81885;BMP280;71340;55.154;30.266;2023-07-16T00:35:55;99544.75;;;14.12
81885;BMP280;71340;55.154;30.266;2023-07-16T00:38:20;99551.03;;;14.00
81885;BMP280;71340;55.154;30.266;2023-07-16T00:40:46;99550.72;;;14.05
81885;BMP280;71340;55.154;30.266;2023-07-16T00:43:11;99547.69;;;14.07
81885;BMP280;71340;55.154;30.266;2023-07-16T00:45:38;99546.06;;;13.92
81885;BMP280;71340;55.154;30.266;2023-07-16T00:48:05;99552.84;;;13.96
81885;BMP280;71340;55.154;30.266;2023-07-16T00:50:31;99549.38;;;13.89
81885;BMP280;71340;55.154;30.266;2023-07-16T00:53:01;99548.91;;;13.80
81885;BMP280;71340;55.154;30.266;2023-07-16T00:55:28;99550.06;;;13.82
81885;BMP280;71340;55.154;30.266;2023-07-16T00:57:57;99539.38;;;13.71
81885;BMP280;71340;55.154;30.266;2023-07-16T01:00:24;99553.75;;;13.74
81885;BMP280;71340;55.154;30.266;2023-07-16T01:02:49;99557.16;;;13.78
81885;BMP280;71340;55.154;30.266;2023-07-16T01:05:15;99553.03;;;13.77
81885;BMP280;71340;55.154;30.266;2023-07-16T01:07:43;99545.41;;;13.72
81885;BMP280;71340;55.154;30.266;2023-07-16T01:10:13;99557.94;;;13.78
81885;BMP280;71340;55.154;30.266;2023-07-16T01:12:38;99560.94;;;13.77
81885;BMP280;71340;55.154;30.266;2023-07-16T01:15:04;99553.56;;;13.63
81885;BMP280;71340;55.154;30.266;2023-07-16T01:17:30;99559.56;;;13.60
81885;BMP280;71340;55.154;30.266;2023-07-16T01:19:55;99563.63;;;13.54
81885;BMP280;71340;55.154;30.266;2023-07-16T01:25:43;99558.97;;;13.44
81885;BMP280;71340;55.154;30.266;2023-07-16T01:31:00;99562.00;;;13.46
81885;BMP280;71340;55.154;30.266;2023-07-16T01:33:26;99566.50;;;13.46
81885;BMP280;71340;55.154;30.266;2023-07-16T01:35:52;99566.09;;;13.44
81885;BMP280;71340;55.154;30.266;2023-07-16T01:38:17;99571.78;;;13.46
81885;BMP280;71340;55.154;30.266;2023-07-16T01:40:44;99574.47;;;13.49
81885;BMP280;71340;55.154;30.266;2023-07-16T01:43:09;99564.25;;;13.44
81885;BMP280;71340;55.154;30.266;2023-07-16T01:45:34;99572.50;;;13.43
81885;BMP280;71340;55.154;30.266;2023-07-16T01:48:13;99570.13;;;13.34
81885;BMP280;71340;55.154;30.266;2023-07-16T01:50:40;99567.50;;;13.34
81885;BMP280;71340;55.154;30.266;2023-07-16T01:53:05;99569.34;;;13.30
81885;BMP280;71340;55.154;30.266;2023-07-16T01:55:31;99572.31;;;13.29
81885;BMP280;71340;55.154;30.266;2023-07-16T01:57:56;99567.72;;;13.26
81885;BMP280;71340;55.154;30.266;2023-07-16T02:00:22;99578.22;;;13.22
81885;BMP280;71340;55.154;30.266;2023-07-16T02:02:47;99580.84;;;13.22
81885;BMP280;71340;55.154;30.266;2023-07-16T02:05:12;99574.78;;;13.18
81885;BMP280;71340;55.154;30.266;2023-07-16T02:07:38;99581.16;;;13.17
81885;BMP280;71340;55.154;30.266;2023-07-16T02:10:03;99569.78;;;13.10
81885;BMP280;71340;55.154;30.266;2023-07-16T02:12:29;99578.16;;;13.19
81885;BMP280;71340;55.154;30.266;2023-07-16T02:14:54;99582.75;;;13.22
81885;BMP280;71340;55.154;30.266;2023-07-16T02:17:19;99580.50;;;13.24
81885;BMP280;71340;55.154;30.266;2023-07-16T02:19:45;99590.28;;;13.23
81885;BMP280;71340;55.154;30.266;2023-07-16T02:22:10;99585.81;;;13.27
81885;BMP280;71340;55.154;30.266;2023-07-16T02:24:35;99591.09;;;13.31
81885;BMP280;71340;55.154;30.266;2023-07-16T02:27:01;99590.41;;;13.30
81885;BMP280;71340;55.154;30.266;2023-07-16T02:29:26;99593.47;;;13.36
81885;BMP280;71340;55.154;30.266;2023-07-16T02:31:52;99591.69;;;13.43
81885;BMP280;71340;55.154;30.266;2023-07-16T02:34:17;99600.41;;;13.47
81885;BMP280;71340;55.154;30.266;2023-07-16T02:36:43;99592.56;;;13.51
81885;BMP280;71340;55.154;30.266;2023-07-16T02:39:08;99594.50;;;13.54
81885;BMP280;71340;55.154;30.266;2023-07-16T02:41:33;99604.34;;;13.60
81885;BMP280;71340;55.154;30.266;2023-07-16T02:44:00;99604.44;;;13.67
81885;BMP280;71340;55.154;30.266;2023-07-16T02:46:26;99597.75;;;13.73
81885;BMP280;71340;55.154;30.266;2023-07-16T02:48:51;99598.97;;;13.80
81885;BMP280;71340;55.154;30.266;2023-07-16T02:51:16;99609.66;;;13.94
81885;BMP280;71340;55.154;30.266;2023-07-16T02:53:42;99613.56;;;14.07
81885;BMP280;71340;55.154;30.266;2023-07-16T02:56:07;99615.97;;;14.15
81885;BMP280;71340;55.154;30.266;2023-07-16T02:58:32;99619.44;;;14.23
81885;BMP280;71340;55.154;30.266;2023-07-16T03:00:58;99626.69;;;14.29
81885;BMP280;71340;55.154;30.266;2023-07-16T03:03:23;99613.94;;;14.35
81885;BMP280;71340;55.154;30.266;2023-07-16T03:05:48;99622.75;;;14.53
81885;BMP280;71340;55.154;30.266;2023-07-16T03:08:14;99620.63;;;14.62
81885;BMP280;71340;55.154;30.266;2023-07-16T03:10:39;99615.41;;;14.73
81885;BMP280;71340;55.154;30.266;2023-07-16T03:13:04;99618.53;;;14.82
81885;BMP280;71340;55.154;30.266;2023-07-16T03:15:30;99629.97;;;14.96
81885;BMP280;71340;55.154;30.266;2023-07-16T03:17:55;99636.50;;;15.13
81885;BMP280;71340;55.154;30.266;2023-07-16T03:20:20;99642.19;;;15.22
81885;BMP280;71340;55.154;30.266;2023-07-16T03:22:45;99637.78;;;15.36
81885;BMP280;71340;55.154;30.266;2023-07-16T03:25:11;99643.16;;;15.50
81885;BMP280;71340;55.154;30.266;2023-07-16T03:27:36;99638.69;;;15.54
81885;BMP280;71340;55.154;30.266;2023-07-16T03:30:02;99646.25;;;15.63
81885;BMP280;71340;55.154;30.266;2023-07-16T03:32:28;99639.84;;;15.68
81885;BMP280;71340;55.154;30.266;2023-07-16T03:34:53;99640.28;;;15.73
81885;BMP280;71340;55.154;30.266;2023-07-16T03:37:18;99649.78;;;15.85
81885;BMP280;71340;55.154;30.266;2023-07-16T03:39:44;99650.94;;;15.94
81885;BMP280;71340;55.154;30.266;2023-07-16T03:42:09;99646.47;;;16.02
81885;BMP280;71340;55.154;30.266;2023-07-16T03:44:34;99643.47;;;16.14
81885;BMP280;71340;55.154;30.266;2023-07-16T03:47:00;99642.75;;;16.24
81885;BMP280;71340;55.154;30.266;2023-07-16T03:49:25;99633.31;;;16.30
81885;BMP280;71340;55.154;30.266;2023-07-16T03:51:50;99645.47;;;16.45
81885;BMP280;71340;55.154;30.266;2023-07-16T03:54:16;99646.22;;;16.60
81885;BMP280;71340;55.154;30.266;2023-07-16T03:56:41;99648.53;;;16.75
81885;BMP280;71340;55.154;30.266;2023-07-16T03:59:06;99648.13;;;16.87
81885;BMP280;71340;55.154;30.266;2023-07-16T04:01:32;99647.38;;;16.97
81885;BMP280;71340;55.154;30.266;2023-07-16T04:03:57;99646.59;;;17.14
81885;BMP280;71340;55.154;30.266;2023-07-16T04:06:22;99646.59;;;17.21
81885;BMP280;71340;55.154;30.266;2023-07-16T04:08:48;99649.22;;;17.32
81885;BMP280;71340;55.154;30.266;2023-07-16T04:11:13;99652.59;;;17.43
81885;BMP280;71340;55.154;30.266;2023-07-16T04:13:38;99646.16;;;17.51
81885;BMP280;71340;55.154;30.266;2023-07-16T04:16:04;99649.19;;;17.56
81885;BMP280;71340;55.154;30.266;2023-07-16T04:18:29;99650.25;;;17.70
81885;BMP280;71340;55.154;30.266;2023-07-16T04:20:55;99657.41;;;17.80
81885;BMP280;71340;55.154;30.266;2023-07-16T04:23:20;99664.56;;;17.93
81885;BMP280;71340;55.154;30.266;2023-07-16T04:25:45;99669.44;;;18.05
81885;BMP280;71340;55.154;30.266;2023-07-16T04:28:11;99665.97;;;18.19
81885;BMP280;71340;55.154;30.266;2023-07-16T04:30:37;99658.31;;;18.28
81885;BMP280;71340;55.154;30.266;2023-07-16T04:33:03;99662.81;;;18.38
81885;BMP280;71340;55.154;30.266;2023-07-16T04:35:29;99660.13;;;18.45
81885;BMP280;71340;55.154;30.266;2023-07-16T04:37:55;99655.81;;;18.65
81885;BMP280;71340;55.154;30.266;2023-07-16T04:40:20;99672.09;;;18.71
81885;BMP280;71340;55.154;30.266;2023-07-16T04:42:45;99671.59;;;18.83
81885;BMP280;71340;55.154;30.266;2023-07-16T04:45:11;99669.28;;;18.88
81885;BMP280;71340;55.154;30.266;2023-07-16T04:47:36;99670.69;;;19.00
81885;BMP280;71340;55.154;30.266;2023-07-16T04:50:02;99672.78;;;19.19
81885;BMP280;71340;55.154;30.266;2023-07-16T04:52:27;99668.53;;;19.28
81885;BMP280;71340;55.154;30.266;2023-07-16T04:54:52;99672.94;;;19.42
81885;BMP280;71340;55.154;30.266;2023-07-16T04:57:18;99675.31;;;19.66
81885;BMP280;71340;55.154;30.266;2023-07-16T04:59:43;99665.41;;;19.70
81885;BMP280;71340;55.154;30.266;2023-07-16T05:02:08;99671.38;;;19.78
81885;BMP280;71340;55.154;30.266;2023-07-16T05:04:35;99662.19;;;19.83
81885;BMP280;71340;55.154;30.266;2023-07-16T05:07:03;99665.06;;;19.99
81885;BMP280;71340;55.154;30.266;2023-07-16T05:09:29;99668.66;;;20.12
81885;BMP280;71340;55.154;30.266;2023-07-16T05:11:54;99659.44;;;20.20
81885;BMP280;71340;55.154;30.266;2023-07-16T05:14:19;99660.03;;;20.31
81885;BMP280;71340;55.154;30.266;2023-07-16T05:16:45;99665.97;;;20.38
81885;BMP280;71340;55.154;30.266;2023-07-16T05:19:10;99670.22;;;20.59
81885;BMP280;71340;55.154;30.266;2023-07-16T05:21:36;99665.66;;;20.59
81885;BMP280;71340;55.154;30.266;2023-07-16T05:24:01;99671.47;;;20.77
81885;BMP280;71340;55.154;30.266;2023-07-16T05:26:26;99659.72;;;20.94
81885;BMP280;71340;55.154;30.266;2023-07-16T05:28:52;99652.66;;;21.08
81885;BMP280;71340;55.154;30.266;2023-07-16T05:31:17;99655.91;;;21.15
81885;BMP280;71340;55.154;30.266;2023-07-16T05:33:42;99652.16;;;21.32
81885;BMP280;71340;55.154;30.266;2023-07-16T05:36:08;99651.06;;;21.49
81885;BMP280;71340;55.154;30.266;2023-07-16T05:38:33;99653.25;;;21.54
81885;BMP280;71340;55.154;30.266;2023-07-16T05:41:02;99653.34;;;21.67
81885;BMP280;71340;55.154;30.266;2023-07-16T05:43:28;99654.50;;;21.69
81885;BMP280;71340;55.154;30.266;2023-07-16T05:45:54;99658.34;;;21.84
81885;BMP280;71340;55.154;30.266;2023-07-16T05:48:19;99659.53;;;21.99
81885;BMP280;71340;55.154;30.266;2023-07-16T05:50:45;99660.88;;;22.07
81885;BMP280;71340;55.154;30.266;2023-07-16T05:53:11;99658.03;;;22.14
81885;BMP280;71340;55.154;30.266;2023-07-16T05:55:36;99659.97;;;22.30
81885;BMP280;71340;55.154;30.266;2023-07-16T05:58:01;99655.38;;;22.31
81885;BMP280;71340;55.154;30.266;2023-07-16T06:00:27;99667.97;;;22.46
81885;BMP280;71340;55.154;30.266;2023-07-16T06:02:52;99660.34;;;22.61
81885;BMP280;71340;55.154;30.266;2023-07-16T06:05:17;99663.41;;;22.75
81885;BMP280;71340;55.154;30.266;2023-07-16T06:07:43;99657.59;;;22.93
81885;BMP280;71340;55.154;30.266;2023-07-16T06:10:08;99656.56;;;23.03
81885;BMP280;71340;55.154;30.266;2023-07-16T06:12:34;99661.22;;;23.15
81885;BMP280;71340;55.154;30.266;2023-07-16T06:15:00;99656.31;;;23.26
81885;BMP280;71340;55.154;30.266;2023-07-16T06:17:25;99656.00;;;23.24
81885;BMP280;71340;55.154;30.266;2023-07-16T06:19:50;99656.56;;;23.31
81885;BMP280;71340;55.154;30.266;2023-07-16T06:22:17;99654.94;;;23.34
81885;BMP280;71340;55.154;30.266;2023-07-16T06:24:42;99652.78;;;23.29
81885;BMP280;71340;55.154;30.266;2023-07-16T06:27:07;99643.97;;;23.16
81885;BMP280;71340;55.154;30.266;2023-07-16T06:29:33;99646.06;;;22.96
81885;BMP280;71340;55.154;30.266;2023-07-16T06:31:59;99653.31;;;23.36
81885;BMP280;71340;55.154;30.266;2023-07-16T06:34:25;99645.34;;;23.49
81885;BMP280;71340;55.154;30.266;2023-07-16T06:36:50;99641.59;;;23.59
81885;BMP280;71340;55.154;30.266;2023-07-16T06:39:16;99640.00;;;23.49
81885;BMP280;71340;55.154;30.266;2023-07-16T06:41:41;99635.59;;;23.80
81885;BMP280;71340;55.154;30.266;2023-07-16T06:44:07;99634.63;;;23.87
81885;BMP280;71340;55.154;30.266;2023-07-16T06:46:32;99635.56;;;24.05
81885;BMP280;71340;55.154;30.266;2023-07-16T06:48:57;99640.75;;;24.21
81885;BMP280;71340;55.154;30.266;2023-07-16T06:51:23;99640.53;;;24.28
81885;BMP280;71340;55.154;30.266;2023-07-16T06:53:48;99639.59;;;24.56
81885;BMP280;71340;55.154;30.266;2023-07-16T06:56:14;99643.16;;;24.19
81885;BMP280;71340;55.154;30.266;2023-07-16T06:58:39;99643.22;;;24.41
81885;BMP280;71340;55.154;30.266;2023-07-16T07:01:05;99638.72;;;24.38
81885;BMP280;71340;55.154;30.266;2023-07-16T07:03:30;99636.13;;;24.47
81885;BMP280;71340;55.154;30.266;2023-07-16T07:05:55;99636.13;;;24.68
81885;BMP280;71340;55.154;30.266;2023-07-16T07:08:21;99644.06;;;24.59
81885;BMP280;71340;55.154;30.266;2023-07-16T07:10:48;99639.78;;;24.83
81885;BMP280;71340;55.154;30.266;2023-07-16T07:13:14;99642.41;;;24.74
81885;BMP280;71340;55.154;30.266;2023-07-16T07:15:41;99631.56;;;24.99
81885;BMP280;71340;55.154;30.266;2023-07-16T07:18:06;99644.78;;;25.15
81885;BMP280;71340;55.154;30.266;2023-07-16T07:20:32;99628.31;;;25.35
81885;BMP280;71340;55.154;30.266;2023-07-16T07:22:57;99637.16;;;25.54
81885;BMP280;71340;55.154;30.266;2023-07-16T07:25:24;99638.63;;;24.84
81885;BMP280;71340;55.154;30.266;2023-07-16T07:27:49;99640.38;;;24.78
81885;BMP280;71340;55.154;30.266;2023-07-16T07:30:14;99641.44;;;25.11
81885;BMP280;71340;55.154;30.266;2023-07-16T07:32:40;99632.78;;;25.38
81885;BMP280;71340;55.154;30.266;2023-07-16T07:35:05;99634.44;;;25.75
81885;BMP280;71340;55.154;30.266;2023-07-16T07:37:31;99632.28;;;25.70
81885;BMP280;71340;55.154;30.266;2023-07-16T07:39:58;99624.72;;;25.78
81885;BMP280;71340;55.154;30.266;2023-07-16T07:42:24;99622.53;;;26.03
81885;BMP280;71340;55.154;30.266;2023-07-16T07:44:50;99625.53;;;26.23
81885;BMP280;71340;55.154;30.266;2023-07-16T07:47:15;99634.34;;;26.15
81885;BMP280;71340;55.154;30.266;2023-07-16T07:49:40;99630.53;;;25.76
81885;BMP280;71340;55.154;30.266;2023-07-16T07:52:06;99627.75;;;26.25
81885;BMP280;71340;55.154;30.266;2023-07-16T07:54:32;99628.50;;;26.52
81885;BMP280;71340;55.154;30.266;2023-07-16T07:57:01;99621.59;;;26.78
81885;BMP280;71340;55.154;30.266;2023-07-16T07:59:28;99625.59;;;26.92
81885;BMP280;71340;55.154;30.266;2023-07-16T08:01:53;99622.09;;;27.10
81885;BMP280;71340;55.154;30.266;2023-07-16T08:04:19;99618.66;;;27.09
81885;BMP280;71340;55.154;30.266;2023-07-16T08:06:44;99608.69;;;27.24
81885;BMP280;71340;55.154;30.266;2023-07-16T08:09:09;99622.28;;;27.62
81885;BMP280;71340;55.154;30.266;2023-07-16T08:11:35;99602.25;;;26.98
81885;BMP280;71340;55.154;30.266;2023-07-16T08:14:00;99615.22;;;26.40
81885;BMP280;71340;55.154;30.266;2023-07-16T08:16:25;99602.91;;;26.75
81885;BMP280;71340;55.154;30.266;2023-07-16T08:18:50;99605.25;;;27.00
81885;BMP280;71340;55.154;30.266;2023-07-16T08:21:16;99599.53;;;27.07
81885;BMP280;71340;55.154;30.266;2023-07-16T08:23:46;99595.47;;;27.12
81885;BMP280;71340;55.154;30.266;2023-07-16T08:26:12;99603.41;;;27.39
81885;BMP280;71340;55.154;30.266;2023-07-16T08:28:38;99599.19;;;27.14
81885;BMP280;71340;55.154;30.266;2023-07-16T08:31:03;99597.31;;;27.38
81885;BMP280;71340;55.154;30.266;2023-07-16T08:33:28;99594.78;;;27.58
81885;BMP280;71340;55.154;30.266;2023-07-16T08:35:54;99590.28;;;27.79
81885;BMP280;71340;55.154;30.266;2023-07-16T08:38:19;99585.03;;;27.84
81885;BMP280;71340;55.154;30.266;2023-07-16T08:40:46;99573.19;;;28.05
81885;BMP280;71340;55.154;30.266;2023-07-16T08:43:12;99589.69;;;27.60
81885;BMP280;71340;55.154;30.266;2023-07-16T08:45:39;99580.22;;;27.65
81885;BMP280;71340;55.154;30.266;2023-07-16T08:48:07;99577.53;;;27.65
81885;BMP280;71340;55.154;30.266;2023-07-16T08:50:34;99583.47;;;27.69
81885;BMP280;71340;55.154;30.266;2023-07-16T08:53:00;99577.63;;;27.70
81885;BMP280;71340;55.154;30.266;2023-07-16T08:55:26;99568.03;;;27.93
81885;BMP280;71340;55.154;30.266;2023-07-16T08:57:52;99567.78;;;28.05
81885;BMP280;71340;55.154;30.266;2023-07-16T09:00:18;99569.91;;;28.01
81885;BMP280;71340;55.154;30.266;2023-07-16T09:02:44;99571.13;;;28.29
81885;BMP280;71340;55.154;30.266;2023-07-16T09:05:09;99572.25;;;28.52
81885;BMP280;71340;55.154;30.266;2023-07-16T09:07:35;99563.31;;;28.02
81885;BMP280;71340;55.154;30.266;2023-07-16T09:10:02;99557.00;;;28.05
81885;BMP280;71340;55.154;30.266;2023-07-16T09:12:28;99559.88;;;28.16
81885;BMP280;71340;55.154;30.266;2023-07-16T09:14:55;99558.69;;;28.46
81885;BMP280;71340;55.154;30.266;2023-07-16T09:17:22;99548.53;;;28.27
81885;BMP280;71340;55.154;30.266;2023-07-16T09:19:49;99551.97;;;28.56
81885;BMP280;71340;55.154;30.266;2023-07-16T09:22:17;99553.03;;;28.79
81885;BMP280;71340;55.154;30.266;2023-07-16T09:24:47;99551.69;;;29.04
81885;BMP280;71340;55.154;30.266;2023-07-16T09:27:13;99543.78;;;28.65
81885;BMP280;71340;55.154;30.266;2023-07-16T09:29:38;99553.56;;;28.98
81885;BMP280;71340;55.154;30.266;2023-07-16T09:32:04;99562.44;;;28.83
81885;BMP280;71340;55.154;30.266;2023-07-16T09:34:33;99563.06;;;28.93
81885;BMP280;71340;55.154;30.266;2023-07-16T09:36:59;99558.69;;;29.16
81885;BMP280;71340;55.154;30.266;2023-07-16T09:39:25;99552.88;;;28.68
81885;BMP280;71340;55.154;30.266;2023-07-16T09:41:51;99542.63;;;28.72
81885;BMP280;71340;55.154;30.266;2023-07-16T09:44:17;99539.59;;;28.84
81885;BMP280;71340;55.154;30.266;2023-07-16T09:46:44;99538.38;;;29.00
81885;BMP280;71340;55.154;30.266;2023-07-16T09:49:10;99534.00;;;29.43
81885;BMP280;71340;55.154;30.266;2023-07-16T09:51:37;99536.41;;;29.61
81885;BMP280;71340;55.154;30.266;2023-07-16T09:54:03;99533.44;;;29.84
81885;BMP280;71340;55.154;30.266;2023-07-16T09:59:01;99528.81;;;30.16
81885;BMP280;71340;55.154;30.266;2023-07-16T10:01:28;99537.75;;;30.58
81885;BMP280;71340;55.154;30.266;2023-07-16T10:03:53;99524.78;;;30.31
81885;BMP280;71340;55.154;30.266;2023-07-16T10:06:18;99519.66;;;30.39
81885;BMP280;71340;55.154;30.266;2023-07-16T10:08:50;99519.28;;;30.57
81885;BMP280;71340;55.154;30.266;2023-07-16T10:11:17;99516.63;;;30.26
81885;BMP280;71340;55.154;30.266;2023-07-16T10:13:43;99512.56;;;30.16
81885;BMP280;71340;55.154;30.266;2023-07-16T10:16:19;99513.03;;;30.40
81885;BMP280;71340;55.154;30.266;2023-07-16T10:18:50;99514.16;;;30.28
81885;BMP280;71340;55.154;30.266;2023-07-16T10:21:22;99507.25;;;30.27
81885;BMP280;71340;55.154;30.266;2023-07-16T10:23:57;99505.34;;;30.33
81885;BMP280;71340;55.154;30.266;2023-07-16T10:26:26;99499.44;;;29.98
81885;BMP280;71340;55.154;30.266;2023-07-16T10:28:53;99512.94;;;29.98
81885;BMP280;71340;55.154;30.266;2023-07-16T10:31:23;99516.75;;;30.11
81885;BMP280;71340;55.154;30.266;2023-07-16T10:34:02;99511.66;;;29.68
81885;BMP280;71340;55.154;30.266;2023-07-16T10:36:37;99505.94;;;29.86
81885;BMP280;71340;55.154;30.266;2023-07-16T10:39:04;99513.00;;;30.34
81885;BMP280;71340;55.154;30.266;2023-07-16T10:41:30;99493.84;;;30.43
81885;BMP280;71340;55.154;30.266;2023-07-16T10:43:56;99503.84;;;30.26
81885;BMP280;71340;55.154;30.266;2023-07-16T10:46:22;99498.97;;;30.78
81885;BMP280;71340;55.154;30.266;2023-07-16T10:48:47;99493.72;;;31.16
81885;BMP280;71340;55.154;30.266;2023-07-16T10:51:16;99493.97;;;31.24
81885;BMP280;71340;55.154;30.266;2023-07-16T10:53:44;99489.78;;;31.17
81885;BMP280;71340;55.154;30.266;2023-07-16T10:56:10;99490.47;;;31.07
81885;BMP280;71340;55.154;30.266;2023-07-16T10:58:39;99481.59;;;31.12
81885;BMP280;71340;55.154;30.266;2023-07-16T11:01:08;99482.81;;;30.47
81885;BMP280;71340;55.154;30.266;2023-07-16T11:03:34;99477.47;;;30.63
81885;BMP280;71340;55.154;30.266;2023-07-16T11:06:06;99481.03;;;30.91
81885;BMP280;71340;55.154;30.266;2023-07-16T11:08:31;99484.88;;;31.27
81885;BMP280;71340;55.154;30.266;2023-07-16T11:10:57;99481.47;;;31.43
81885;BMP280;71340;55.154;30.266;2023-07-16T11:13:30;99472.03;;;31.16
81885;BMP280;71340;55.154;30.266;2023-07-16T11:15:56;99480.41;;;31.13
81885;BMP280;71340;55.154;30.266;2023-07-16T11:18:26;99483.63;;;31.28
81885;BMP280;71340;55.154;30.266;2023-07-16T11:20:52;99479.72;;;31.29
81885;BMP280;71340;55.154;30.266;2023-07-16T11:23:18;99479.03;;;30.81
81885;BMP280;71340;55.154;30.266;2023-07-16T11:25:49;99490.06;;;31.30
81885;BMP280;71340;55.154;30.266;2023-07-16T11:28:15;99486.59;;;31.30
81885;BMP280;71340;55.154;30.266;2023-07-16T11:30:41;99488.91;;;31.76
81885;BMP280;71340;55.154;30.266;2023-07-16T11:33:13;99484.94;;;31.65
81885;BMP280;71340;55.154;30.266;2023-07-16T11:35:39;99483.72;;;31.67
81885;BMP280;71340;55.154;30.266;2023-07-16T11:38:05;99482.72;;;31.70
81885;BMP280;71340;55.154;30.266;2023-07-16T11:40:33;99475.50;;;31.17
81885;BMP280;71340;55.154;30.266;2023-07-16T11:43:10;99473.34;;;30.73
81885;BMP280;71340;55.154;30.266;2023-07-16T11:45:35;99490.22;;;31.05
81885;BMP280;71340;55.154;30.266;2023-07-16T11:48:01;99478.94;;;31.17
81885;BMP280;71340;55.154;30.266;2023-07-16T11:50:28;99476.50;;;31.19
81885;BMP280;71340;55.154;30.266;2023-07-16T11:52:58;99482.66;;;31.25
81885;BMP280;71340;55.154;30.266;2023-07-16T11:55:24;99485.16;;;31.40
81885;BMP280;71340;55.154;30.266;2023-07-16T11:57:49;99487.19;;;31.67
81885;BMP280;71340;55.154;30.266;2023-07-16T12:00:15;99472.56;;;32.14
81885;BMP280;71340;55.154;30.266;2023-07-16T12:02:42;99474.59;;;31.97
81885;BMP280;71340;55.154;30.266;2023-07-16T12:05:08;99473.34;;;31.76
81885;BMP280;71340;55.154;30.266;2023-07-16T12:07:36;99470.38;;;31.74
81885;BMP280;71340;55.154;30.266;2023-07-16T12:10:03;99470.91;;;31.89
81885;BMP280;71340;55.154;30.266;2023-07-16T12:12:28;99466.34;;;32.52
81885;BMP280;71340;55.154;30.266;2023-07-16T12:14:54;99459.84;;;32.72
81885;BMP280;71340;55.154;30.266;2023-07-16T12:17:19;99456.75;;;32.35
81885;BMP280;71340;55.154;30.266;2023-07-16T12:19:44;99466.97;;;32.80
81885;BMP280;71340;55.154;30.266;2023-07-16T12:22:13;99448.75;;;32.64
81885;BMP280;71340;55.154;30.266;2023-07-16T12:24:40;99451.03;;;32.49
81885;BMP280;71340;55.154;30.266;2023-07-16T12:27:06;99458.03;;;32.06
81885;BMP280;71340;55.154;30.266;2023-07-16T12:29:31;99457.06;;;32.04
81885;BMP280;71340;55.154;30.266;2023-07-16T12:31:57;99465.09;;;32.48
81885;BMP280;71340;55.154;30.266;2023-07-16T12:34:22;99457.75;;;32.94
81885;BMP280;71340;55.154;30.266;2023-07-16T12:36:47;99451.38;;;31.91
81885;BMP280;71340;55.154;30.266;2023-07-16T12:39:13;99453.03;;;32.32
81885;BMP280;71340;55.154;30.266;2023-07-16T12:41:38;99444.72;;;32.76
81885;BMP280;71340;55.154;30.266;2023-07-16T12:44:03;99445.16;;;32.91
81885;BMP280;71340;55.154;30.266;2023-07-16T12:46:29;99437.72;;;33.32
81885;BMP280;71340;55.154;30.266;2023-07-16T12:48:54;99447.41;;;33.87
81885;BMP280;71340;55.154;30.266;2023-07-16T12:51:19;99446.16;;;33.29
81885;BMP280;71340;55.154;30.266;2023-07-16T12:53:45;99448.16;;;33.58
81885;BMP280;71340;55.154;30.266;2023-07-16T12:56:11;99438.28;;;33.25
81885;BMP280;71340;55.154;30.266;2023-07-16T12:58:36;99439.63;;;34.20
81885;BMP280;71340;55.154;30.266;2023-07-16T13:01:01;99442.63;;;34.78
81885;BMP280;71340;55.154;30.266;2023-07-16T13:03:27;99455.63;;;34.85
81885;BMP280;71340;55.154;30.266;2023-07-16T13:05:52;99444.50;;;35.01
81885;BMP280;71340;55.154;30.266;2023-07-16T13:08:18;99429.97;;;35.82
81885;BMP280;71340;55.154;30.266;2023-07-16T13:10:43;99434.72;;;36.41
81885;BMP280;71340;55.154;30.266;2023-07-16T13:13:08;99446.31;;;37.30
81885;BMP280;71340;55.154;30.266;2023-07-16T13:15:34;99434.56;;;36.60
81885;BMP280;71340;55.154;30.266;2023-07-16T13:17:59;99432.63;;;36.47
81885;BMP280;71340;55.154;30.266;2023-07-16T13:20:25;99431.19;;;37.29
81885;BMP280;71340;55.154;30.266;2023-07-16T13:22:51;99430.75;;;38.16
81885;BMP280;71340;55.154;30.266;2023-07-16T13:25:17;99431.94;;;37.65
81885;BMP280;71340;55.154;30.266;2023-07-16T13:27:42;99436.84;;;38.37
81885;BMP280;71340;55.154;30.266;2023-07-16T13:30:07;99428.13;;;38.69
81885;BMP280;71340;55.154;30.266;2023-07-16T13:32:33;99431.03;;;38.63
81885;BMP280;71340;55.154;30.266;2023-07-16T13:34:59;99415.34;;;38.79
81885;BMP280;71340;55.154;30.266;2023-07-16T13:37:24;99424.28;;;39.17
81885;BMP280;71340;55.154;30.266;2023-07-16T13:39:49;99412.78;;;38.66
81885;BMP280;71340;55.154;30.266;2023-07-16T13:42:15;99419.34;;;39.08
81885;BMP280;71340;55.154;30.266;2023-07-16T13:44:40;99430.66;;;39.49
81885;BMP280;71340;55.154;30.266;2023-07-16T13:47:05;99431.06;;;39.23
81885;BMP280;71340;55.154;30.266;2023-07-16T13:49:31;99421.22;;;40.14
81885;BMP280;71340;55.154;30.266;2023-07-16T13:51:56;99414.19;;;40.20
81885;BMP280;71340;55.154;30.266;2023-07-16T13:54:22;99416.19;;;39.96
81885;BMP280;71340;55.154;30.266;2023-07-16T13:56:48;99424.13;;;39.84
81885;BMP280;71340;55.154;30.266;2023-07-16T13:59:13;99414.19;;;40.20